createdAt,value
2022-11-15T00:00:59.791Z,85.13
2022-11-15T00:03:45.332Z,85.13
2022-11-15T00:06:30.713Z,84.98
2022-11-15T00:09:15.843Z,84.86
2022-11-15T00:12:00.626Z,84.71
2022-11-15T00:14:45.249Z,84.92
2022-11-15T00:17:30.625Z,85.10
2022-11-15T00:20:15.508Z,84.82
2022-11-15T00:23:00.640Z,84.96
2022-11-15T00:25:45.634Z,85.33
2022-11-15T00:28:30.592Z,85.26
2022-11-15T00:31:15.867Z,85.24
2022-11-15T00:34:00.498Z,86.04
2022-11-15T00:36:45.561Z,85.86
2022-11-15T00:39:30.514Z,86.00
2022-11-15T00:42:15.308Z,86.06
2022-11-15T00:45:00.425Z,85.86
2022-11-15T00:47:47.186Z,85.84
2022-11-15T00:50:32.163Z,85.75
2022-11-15T00:53:17.682Z,85.52
2022-11-15T00:56:04.598Z,85.31
2022-11-15T00:58:49.611Z,85.13
2022-11-15T01:01:34.594Z,85.13
2022-11-15T01:04:19.841Z,85.35
2022-11-15T01:07:04.828Z,85.25
2022-11-15T01:09:50.108Z,85.45
2022-11-15T01:12:34.890Z,85.41
2022-11-15T01:15:19.768Z,85.45
2022-11-15T01:18:04.618Z,85.42
2022-11-15T01:20:49.584Z,85.47
2022-11-15T01:23:35.310Z,85.88
2022-11-15T01:26:20.113Z,85.86
2022-11-15T01:29:05.068Z,85.86
2022-11-15T01:31:50.178Z,85.96
2022-11-15T01:34:35.249Z,85.81
2022-11-15T01:37:20.021Z,86.37
2022-11-15T01:40:05.674Z,86.70
2022-11-15T01:42:50.654Z,86.62
2022-11-15T01:45:35.393Z,86.64
2022-11-15T01:48:21.821Z,86.67
2022-11-15T01:51:12.735Z,86.66
2022-11-15T01:54:01.981Z,86.67
2022-11-15T01:56:55.724Z,86.82
2022-11-15T01:59:44.320Z,86.80
2022-11-15T02:02:29.143Z,86.71
2022-11-15T02:05:13.947Z,86.67
2022-11-15T02:08:00.690Z,86.52
2022-11-15T02:10:47.719Z,87.09
2022-11-15T02:13:33.175Z,86.79
2022-11-15T02:16:39.939Z,87.25
2022-11-15T02:19:34.297Z,87.20
2022-11-15T02:22:45.786Z,86.81
2022-11-15T02:25:39.777Z,87.26
2022-11-15T02:28:27.798Z,86.87
2022-11-15T02:31:12.434Z,86.92
2022-11-15T02:34:03.212Z,87.18
2022-11-15T02:36:56.699Z,87.54
2022-11-15T02:39:51.428Z,87.32
2022-11-15T02:43:15.087Z,87.46
2022-11-15T02:46:07.463Z,87.47
2022-11-15T02:48:52.583Z,87.30
2022-11-15T02:51:37.627Z,87.45
2022-11-15T02:54:24.112Z,87.71
2022-11-15T02:57:13.597Z,87.71
2022-11-15T02:59:58.293Z,87.61
2022-11-15T03:03:01.799Z,87.57
2022-11-15T03:05:52.674Z,87.16
2022-11-15T03:09:00.522Z,88.08
2022-11-15T03:11:49.410Z,88.14
2022-11-15T03:14:38.349Z,88.07
2022-11-15T03:17:43.728Z,89.20
2022-11-15T03:20:28.963Z,89.55
2022-11-15T03:23:14.263Z,90.02
2022-11-15T03:26:00.489Z,89.94
2022-11-15T03:28:49.720Z,90.33
2022-11-15T03:31:50.473Z,90.93
2022-11-15T03:34:42.378Z,90.74
2022-11-15T03:37:34.797Z,91.21
2022-11-15T03:40:22.788Z,91.07
2022-11-15T03:43:11.303Z,90.63
2022-11-15T03:46:16.202Z,91.25
2022-11-15T03:49:09.127Z,92.11
2022-11-15T03:51:54.206Z,91.06
2022-11-15T03:54:48.395Z,91.54
2022-11-15T03:57:33.210Z,92.22
2022-11-15T04:00:18.188Z,92.44
2022-11-15T04:03:03.286Z,92.08
2022-11-15T04:05:48.149Z,92.18
2022-11-15T04:08:32.773Z,92.67
2022-11-15T04:11:17.524Z,92.78
2022-11-15T04:14:02.248Z,92.49
2022-11-15T04:16:47.135Z,92.39
2022-11-15T04:19:50.665Z,92.17
2022-11-15T04:22:54.497Z,92.60
2022-11-15T04:25:39.816Z,93.16
2022-11-15T04:28:24.842Z,92.84
2022-11-15T04:31:09.667Z,92.72
2022-11-15T04:33:54.844Z,92.74
2022-11-15T04:36:58.488Z,92.52
2022-11-15T04:39:44.113Z,92.98
2022-11-15T04:42:29.025Z,93.63
2022-11-15T04:45:13.932Z,93.58
2022-11-15T04:47:58.703Z,93.04
2022-11-15T04:50:43.390Z,93.63
2022-11-15T04:53:28.279Z,94.07
2022-11-15T04:56:13.244Z,93.86
2022-11-15T04:58:58.078Z,94.14
2022-11-15T05:01:45.045Z,93.87
2022-11-15T05:04:30.160Z,94.50
2022-11-15T05:07:15.146Z,94.48
2022-11-15T05:10:00.412Z,94.81
2022-11-15T05:12:45.207Z,94.51
2022-11-15T05:15:29.922Z,93.95
2022-11-15T05:18:17.235Z,94.12
2022-11-15T05:21:10.524Z,93.85
2022-11-15T05:23:55.758Z,93.83
2022-11-15T05:26:40.339Z,93.19
2022-11-15T05:29:25.026Z,93.72
2022-11-15T05:32:10.382Z,92.70
2022-11-15T05:34:55.556Z,93.08
2022-11-15T05:37:41.160Z,92.78
2022-11-15T05:40:26.747Z,92.44
2022-11-15T05:43:11.539Z,92.66
2022-11-15T05:45:57.679Z,92.29
2022-11-15T05:48:44.268Z,92.40
2022-11-15T05:51:30.128Z,92.39
2022-11-15T05:54:15.540Z,91.83
2022-11-15T05:57:01.038Z,92.36
2022-11-15T05:59:45.800Z,91.54
2022-11-15T06:02:30.731Z,91.67
2022-11-15T06:05:15.641Z,91.39
2022-11-15T06:08:00.546Z,92.22
2022-11-15T06:10:45.283Z,91.19
2022-11-15T06:13:30.481Z,91.10
2022-11-15T06:16:15.972Z,91.08
2022-11-15T06:19:00.625Z,91.10
2022-11-15T06:21:45.588Z,91.35
2022-11-15T06:24:30.167Z,91.03
2022-11-15T06:27:15.001Z,90.97
2022-11-15T06:29:59.565Z,90.41
2022-11-15T06:32:44.320Z,91.32
2022-11-15T06:35:29.516Z,91.25
2022-11-15T06:38:14.434Z,90.94
2022-11-15T06:41:06.500Z,91.25
2022-11-15T06:43:51.607Z,90.54
2022-11-15T06:46:36.668Z,90.85
2022-11-15T06:49:21.946Z,90.39
2022-11-15T06:52:06.958Z,90.36
2022-11-15T06:54:51.944Z,90.23
2022-11-15T06:57:37.384Z,90.97
2022-11-15T07:00:23.096Z,91.01
2022-11-15T07:03:08.154Z,90.66
2022-11-15T07:05:57.404Z,90.14
2022-11-15T07:08:43.264Z,90.58
2022-11-15T07:11:28.051Z,90.78
2022-11-15T07:14:12.692Z,90.71
2022-11-15T07:16:57.522Z,89.76
2022-11-15T07:19:42.224Z,90.23
2022-11-15T07:22:26.944Z,90.30
2022-11-15T07:25:11.879Z,90.08
2022-11-15T07:28:00.747Z,90.25
2022-11-15T07:30:46.143Z,89.89
2022-11-15T07:33:31.057Z,90.10
2022-11-15T07:36:16.161Z,90.14
2022-11-15T07:39:00.911Z,89.85
2022-11-15T07:41:47.247Z,89.55
2022-11-15T07:44:32.346Z,89.59
2022-11-15T07:47:17.041Z,89.47
2022-11-15T07:50:02.113Z,89.36
2022-11-15T07:52:47.116Z,89.54
2022-11-15T07:55:32.082Z,89.20
2022-11-15T07:58:16.903Z,89.21
2022-11-15T08:01:09.064Z,89.01
2022-11-15T08:03:54.187Z,88.82
2022-11-15T08:06:38.991Z,88.74
2022-11-15T08:09:23.635Z,88.95
2022-11-15T08:12:08.586Z,88.82
2022-11-15T08:14:53.177Z,88.53
2022-11-15T08:17:37.983Z,88.18
2022-11-15T08:20:22.811Z,88.19
2022-11-15T08:23:08.673Z,87.91
2022-11-15T08:25:53.425Z,87.57
2022-11-15T08:28:38.362Z,87.01
2022-11-15T08:31:23.155Z,86.72
2022-11-15T08:34:07.912Z,86.55
2022-11-15T08:36:52.863Z,86.32
2022-11-15T08:39:38.808Z,85.73
2022-11-15T08:42:23.595Z,85.54
2022-11-15T08:45:09.053Z,85.55
2022-11-15T08:47:54.735Z,84.98
2022-11-15T08:50:40.305Z,84.16
2022-11-15T08:53:25.279Z,83.95
2022-11-15T08:56:11.043Z,83.88
2022-11-15T08:58:56.051Z,83.02
2022-11-15T09:01:40.872Z,82.75
2022-11-15T09:04:25.617Z,81.74
2022-11-15T09:07:11.765Z,81.10
2022-11-15T09:09:56.898Z,80.92
2022-11-15T09:12:41.595Z,80.29
2022-11-15T09:15:26.420Z,79.67
2022-11-15T09:18:11.039Z,79.37
2022-11-15T09:20:57.484Z,78.79
2022-11-15T09:23:42.523Z,78.80
2022-11-15T09:26:27.486Z,77.53
2022-11-15T09:29:12.422Z,77.10
2022-11-15T09:31:57.133Z,77.24
2022-11-15T09:34:41.950Z,76.13
2022-11-15T09:37:26.804Z,76.01
2022-11-15T09:40:17.489Z,76.60
2022-11-15T09:43:21.083Z,75.81
2022-11-15T09:46:24.413Z,75.27
2022-11-15T09:49:10.243Z,74.31
2022-11-15T09:51:52.395Z,74.71
2022-11-15T09:54:52.773Z,74.16
2022-11-15T09:57:23.348Z,74.71
2022-11-15T10:00:38.727Z,74.91
2022-11-15T10:02:54.658Z,75.58
2022-11-15T10:05:23.000Z,75.93
2022-11-15T10:08:13.874Z,75.53
2022-11-15T10:10:41.710Z,75.76
2022-11-15T10:13:13.315Z,75.56
2022-11-15T10:15:39.735Z,75.04
2022-11-15T10:18:14.296Z,74.42
2022-11-15T10:20:47.327Z,74.70
2022-11-15T10:23:15.350Z,74.25
2022-11-15T10:25:41.957Z,73.71
2022-11-15T10:28:14.443Z,73.33
2022-11-15T10:30:52.271Z,73.42
2022-11-15T10:33:30.681Z,73.35
2022-11-15T10:36:09.046Z,72.97
2022-11-15T10:38:50.703Z,72.90
2022-11-15T10:41:30.469Z,72.85
2022-11-15T10:44:02.892Z,72.84
2022-11-15T10:46:46.139Z,72.60
2022-11-15T10:49:17.486Z,72.64
2022-11-15T10:51:46.992Z,72.12
2022-11-15T10:54:19.946Z,71.94
2022-11-15T10:56:49.971Z,70.98
2022-11-15T10:59:19.126Z,71.01
2022-11-15T11:01:49.017Z,69.70
2022-11-15T11:04:15.453Z,69.53
2022-11-15T11:06:52.029Z,68.59
2022-11-15T11:09:24.296Z,67.42
2022-11-15T11:11:52.958Z,67.02
2022-11-15T11:14:28.254Z,65.71
2022-11-15T11:17:03.969Z,65.07
2022-11-15T11:19:30.273Z,64.87
2022-11-15T11:22:16.878Z,64.25
2022-11-15T11:24:53.491Z,63.71
2022-11-15T11:27:31.884Z,61.39
2022-11-15T11:30:07.283Z,59.44
2022-11-15T11:32:33.607Z,57.74
2022-11-15T11:35:20.192Z,55.40
2022-11-15T11:38:01.487Z,55.68
2022-11-15T11:40:27.835Z,55.71
2022-11-15T11:43:14.509Z,55.24
2022-11-15T11:45:53.018Z,54.78
2022-11-15T11:48:36.268Z,53.30
2022-11-15T11:51:13.521Z,52.36
2022-11-15T11:53:53.856Z,51.60
2022-11-15T11:56:24.153Z,51.45
2022-11-15T11:58:51.564Z,51.04
2022-11-15T12:01:20.673Z,50.62
2022-11-15T12:03:51.985Z,50.94
2022-11-15T12:06:30.328Z,50.82
2022-11-15T12:09:03.213Z,51.11
2022-11-15T12:11:29.527Z,50.91
2022-11-15T12:14:00.936Z,51.23
2022-11-15T12:16:28.880Z,51.46
2022-11-15T12:18:56.455Z,52.00
2022-11-15T12:21:41.261Z,52.06
2022-11-15T12:24:17.592Z,51.68
2022-11-15T12:26:53.371Z,50.81
2022-11-15T12:29:19.880Z,50.72
2022-11-15T12:32:58.582Z,50.09
2022-11-15T12:35:35.612Z,48.68
2022-11-15T12:38:02.331Z,47.82
2022-11-15T12:40:31.644Z,47.58
2022-11-15T12:43:14.773Z,46.60
2022-11-15T12:45:43.785Z,46.96
2022-11-15T12:48:19.096Z,47.39
2022-11-15T12:50:51.587Z,47.52
2022-11-15T12:53:24.169Z,48.04
2022-11-15T12:56:16.746Z,48.37
2022-11-15T12:58:44.739Z,49.05
2022-11-15T13:01:11.738Z,49.87
2022-11-15T13:04:16.234Z,50.72
2022-11-15T13:06:56.862Z,51.20
2022-11-15T13:09:29.078Z,52.32
2022-11-15T13:11:57.515Z,52.90
2022-11-15T13:14:48.967Z,53.80
2022-11-15T13:17:23.524Z,54.14
2022-11-15T13:19:59.803Z,54.81
2022-11-15T13:23:00.032Z,55.78
2022-11-15T13:25:49.758Z,56.54
2022-11-15T13:28:16.121Z,56.21
2022-11-15T13:30:48.597Z,55.93
2022-11-15T13:33:18.788Z,56.00
2022-11-15T13:35:55.243Z,55.87
2022-11-15T13:38:34.122Z,56.66
2022-11-15T13:41:21.840Z,57.28
2022-11-15T13:43:50.083Z,58.32
2022-11-15T13:46:29.759Z,59.93
2022-11-15T13:49:05.469Z,60.74
2022-11-15T13:51:39.433Z,61.28
2022-11-15T13:54:24.462Z,60.88
2022-11-15T13:56:56.713Z,60.52
2022-11-15T13:59:27.519Z,60.98
2022-11-15T14:01:56.199Z,60.58
2022-11-15T14:04:26.190Z,60.77
2022-11-15T14:06:58.732Z,60.83
2022-11-15T14:09:36.056Z,60.62
2022-11-15T14:12:22.714Z,60.66
2022-11-15T14:14:49.466Z,60.80
2022-11-15T14:17:35.128Z,61.02
2022-11-15T14:20:20.423Z,61.09
2022-11-15T14:22:58.616Z,62.03
2022-11-15T14:25:28.051Z,62.04
2022-11-15T14:28:13.301Z,63.37
2022-11-15T14:30:41.502Z,64.12
2022-11-15T14:33:23.828Z,65.23
2022-11-15T14:35:52.031Z,66.76
2022-11-15T14:38:18.625Z,67.48
2022-11-15T14:40:45.248Z,68.67
2022-11-15T14:43:12.741Z,69.90
2022-11-15T14:45:40.098Z,70.71
2022-11-15T14:48:07.010Z,71.23
2022-11-15T14:50:34.868Z,71.58
2022-11-15T14:53:01.382Z,72.03
2022-11-15T14:55:32.557Z,72.64
2022-11-15T14:57:59.570Z,72.92
2022-11-15T15:00:29.737Z,73.87
2022-11-15T15:02:59.173Z,74.20
2022-11-15T15:05:36.690Z,75.10
2022-11-15T15:08:04.622Z,75.36
2022-11-15T15:10:41.515Z,75.80
2022-11-15T15:13:23.208Z,75.86
2022-11-15T15:15:51.503Z,76.40
2022-11-15T15:18:18.363Z,77.11
2022-11-15T15:20:54.287Z,77.39
2022-11-15T15:23:21.376Z,77.04
2022-11-15T15:25:49.895Z,77.44
2022-11-15T15:28:16.377Z,77.05
2022-11-15T15:30:42.909Z,77.54
2022-11-15T15:33:09.319Z,77.49
2022-11-15T15:35:36.063Z,77.36
2022-11-15T15:38:03.152Z,77.25
2022-11-15T15:40:32.654Z,77.70
2022-11-15T15:43:00.312Z,77.08
2022-11-15T15:45:28.500Z,77.16
2022-11-15T15:47:55.343Z,77.37
2022-11-15T15:50:28.986Z,77.97
2022-11-15T15:52:59.108Z,77.63
2022-11-15T15:55:26.482Z,78.15
2022-11-15T15:57:53.314Z,78.10
2022-11-15T16:00:21.000Z,77.84
2022-11-15T16:02:47.868Z,77.96
2022-11-15T16:05:14.393Z,78.16
2022-11-15T16:07:43.971Z,78.62
2022-11-15T16:10:19.542Z,78.61
2022-11-15T16:12:47.360Z,78.57
2022-11-15T16:15:13.863Z,78.74
2022-11-15T16:17:44.892Z,78.85
2022-11-15T16:20:41.951Z,79.08
2022-11-15T16:23:10.594Z,78.95
2022-11-15T16:25:48.938Z,79.12
2022-11-15T16:28:23.700Z,79.20
2022-11-15T16:30:59.891Z,79.46
2022-11-15T16:33:26.298Z,79.14
2022-11-15T16:35:52.807Z,79.50
2022-11-15T16:38:19.444Z,79.56
2022-11-15T16:40:46.016Z,79.38
2022-11-15T16:43:12.590Z,79.16
2022-11-15T16:45:39.145Z,79.32
2022-11-15T16:48:05.686Z,79.90
2022-11-15T16:50:39.731Z,80.03
2022-11-15T16:53:06.519Z,79.62
2022-11-15T16:55:33.076Z,80.00
2022-11-15T16:57:59.547Z,80.23
2022-11-15T17:00:25.987Z,80.72
2022-11-15T17:02:53.854Z,80.59
2022-11-15T17:05:22.641Z,80.66
2022-11-15T17:07:52.231Z,80.54
2022-11-15T17:10:18.747Z,80.77
2022-11-15T17:12:45.331Z,80.54
2022-11-15T17:15:13.120Z,80.72
2022-11-15T17:17:40.740Z,80.95
2022-11-15T17:20:13.415Z,80.82
2022-11-15T17:22:39.810Z,81.73
2022-11-15T17:25:06.651Z,81.03
2022-11-15T17:27:33.022Z,81.19
2022-11-15T17:29:59.408Z,81.57
2022-11-15T17:32:25.875Z,81.44
2022-11-15T17:34:52.311Z,81.97
2022-11-15T17:37:18.730Z,81.89
2022-11-15T17:39:45.115Z,82.24
2022-11-15T17:42:11.673Z,82.49
2022-11-15T17:44:38.092Z,82.51
2022-11-15T17:47:04.609Z,82.70
2022-11-15T17:49:31.118Z,82.88
2022-11-15T17:51:57.568Z,83.00
2022-11-15T17:54:24.004Z,83.01
2022-11-15T17:56:50.439Z,82.44
2022-11-15T17:59:21.175Z,82.68
2022-11-15T18:01:48.020Z,82.74
2022-11-15T18:04:15.280Z,82.62
2022-11-15T18:06:42.049Z,82.59
2022-11-15T18:09:08.789Z,82.63
2022-11-15T18:11:41.334Z,82.78
2022-11-15T18:14:12.504Z,82.88
2022-11-15T18:16:40.200Z,82.71
2022-11-15T18:19:11.407Z,82.56
2022-11-15T18:21:55.954Z,82.57
2022-11-15T18:24:32.048Z,82.57
2022-11-15T18:26:59.884Z,82.31
2022-11-15T18:29:26.593Z,82.30
2022-11-15T18:31:57.479Z,82.17
2022-11-15T18:34:25.821Z,82.58
2022-11-15T18:36:53.161Z,81.96
2022-11-15T18:39:20.170Z,82.25
2022-11-15T18:41:46.988Z,82.18
2022-11-15T18:44:15.795Z,82.30
2022-11-15T18:46:42.875Z,82.34
2022-11-15T18:49:10.502Z,82.46
2022-11-15T18:51:37.893Z,82.84
2022-11-15T18:54:04.420Z,82.67
2022-11-15T18:56:32.114Z,82.79
2022-11-15T18:59:00.651Z,83.12
2022-11-15T19:01:33.853Z,83.29
2022-11-15T19:04:07.880Z,83.32
2022-11-15T19:06:38.443Z,83.45
2022-11-15T19:09:05.083Z,83.41
2022-11-15T19:11:35.483Z,83.44
2022-11-15T19:14:04.695Z,83.31
2022-11-15T19:16:33.387Z,83.25
2022-11-15T19:19:05.452Z,83.07
2022-11-15T19:21:32.224Z,83.59
2022-11-15T19:24:00.524Z,83.54
2022-11-15T19:26:28.417Z,83.63
2022-11-15T19:28:57.037Z,83.63
2022-11-15T19:31:24.783Z,84.08
2022-11-15T19:33:52.703Z,84.26
2022-11-15T19:36:28.100Z,84.34
2022-11-15T19:38:55.806Z,84.60
2022-11-15T19:41:24.217Z,84.66
2022-11-15T19:43:51.343Z,84.78
2022-11-15T19:46:23.391Z,84.94
2022-11-15T19:48:50.942Z,85.11
2022-11-15T19:51:21.535Z,84.88
2022-11-15T19:53:59.770Z,85.02
2022-11-15T19:56:26.155Z,85.30
2022-11-15T19:58:54.333Z,85.08
2022-11-15T20:01:28.297Z,85.15
2022-11-15T20:03:58.496Z,85.18
2022-11-15T20:06:33.323Z,85.65
2022-11-15T20:09:00.134Z,85.17
2022-11-15T20:11:26.891Z,85.22
2022-11-15T20:13:58.472Z,85.73
2022-11-15T20:16:25.666Z,85.48
2022-11-15T20:18:53.182Z,85.39
2022-11-15T20:21:20.170Z,85.12
2022-11-15T20:23:47.760Z,85.45
2022-11-15T20:26:15.183Z,85.40
2022-11-15T20:28:41.787Z,85.22
2022-11-15T20:31:09.598Z,85.39
2022-11-15T20:33:36.139Z,85.56
2022-11-15T20:36:07.770Z,85.37
2022-11-15T20:38:34.898Z,85.37
2022-11-15T20:41:01.719Z,85.69
2022-11-15T20:43:28.170Z,85.97
2022-11-15T20:45:54.964Z,85.64
2022-11-15T20:48:21.872Z,85.90
2022-11-15T20:50:48.587Z,85.81
2022-11-15T20:53:17.800Z,85.60
2022-11-15T20:55:51.019Z,85.67
2022-11-15T20:58:17.988Z,85.99
2022-11-15T21:00:45.598Z,85.81
2022-11-15T21:03:13.589Z,85.73
2022-11-15T21:05:42.413Z,85.90
2022-11-15T21:08:10.215Z,86.42
2022-11-15T21:10:55.788Z,86.50
2022-11-15T21:13:22.669Z,86.21
2022-11-15T21:15:49.250Z,86.69
2022-11-15T21:18:16.149Z,86.74
2022-11-15T21:20:42.716Z,86.66
2022-11-15T21:23:10.059Z,86.76
2022-11-15T21:25:36.564Z,86.69
2022-11-15T21:28:03.297Z,86.76
2022-11-15T21:30:30.247Z,86.47
2022-11-15T21:32:56.834Z,86.84
2022-11-15T21:35:23.797Z,86.87
2022-11-15T21:37:56.090Z,86.45
2022-11-15T21:40:23.467Z,86.45
2022-11-15T21:42:49.945Z,86.48
2022-11-15T21:45:16.458Z,86.76
2022-11-15T21:47:46.105Z,86.46
2022-11-15T21:50:13.476Z,86.67
2022-11-15T21:52:40.554Z,86.75
2022-11-15T21:55:07.613Z,87.03
2022-11-15T21:57:34.056Z,87.05
2022-11-15T22:00:18.977Z,87.32
2022-11-15T22:02:45.391Z,87.03
2022-11-15T22:05:11.904Z,87.06
2022-11-15T22:07:38.407Z,86.87
2022-11-15T22:10:05.379Z,86.83
2022-11-15T22:12:31.850Z,86.84
2022-11-15T22:14:58.338Z,87.36
2022-11-15T22:17:44.857Z,87.21
2022-11-15T22:20:37.777Z,87.47
2022-11-15T22:22:59.512Z,87.02
2022-11-15T22:25:26.387Z,87.54
2022-11-15T22:27:53.344Z,87.12
2022-11-15T22:30:20.592Z,87.25
2022-11-15T22:32:47.160Z,87.01
2022-11-15T22:35:13.980Z,86.81
2022-11-15T22:37:40.459Z,87.39
2022-11-15T22:40:07.658Z,87.16
2022-11-15T22:42:34.389Z,87.11
2022-11-15T22:45:00.827Z,87.76
2022-11-15T22:47:27.322Z,87.47
2022-11-15T22:49:53.776Z,87.47
2022-11-15T22:52:20.233Z,87.37
2022-11-15T22:54:46.765Z,87.80
2022-11-15T22:57:13.820Z,87.38
2022-11-15T22:59:41.106Z,87.66
2022-11-15T23:02:07.680Z,87.82
2022-11-15T23:04:34.152Z,87.78
2022-11-15T23:07:00.701Z,88.00
2022-11-15T23:09:27.325Z,88.10
2022-11-15T23:12:12.288Z,88.00
2022-11-15T23:14:38.786Z,88.04
2022-11-15T23:17:05.279Z,88.00
2022-11-15T23:19:31.724Z,88.15
2022-11-15T23:22:16.353Z,88.36
2022-11-15T23:24:42.769Z,88.06
2022-11-15T23:27:09.219Z,88.53
2022-11-15T23:29:57.112Z,88.73
2022-11-15T23:32:42.438Z,88.33
2022-11-15T23:35:09.185Z,88.98
2022-11-15T23:37:35.623Z,88.82
2022-11-15T23:40:02.098Z,88.76
2022-11-15T23:42:28.584Z,89.08
2022-11-15T23:44:55.060Z,88.70
2022-11-15T23:47:21.652Z,88.52
2022-11-15T23:49:48.232Z,88.56
2022-11-15T23:52:16.030Z,88.19
2022-11-15T23:54:43.148Z,88.21
2022-11-15T23:57:11.917Z,88.34
2022-11-15T23:59:40.009Z,88.44
